createdAt,value
2019-03-12T00:02:18.943Z,10.43
2019-03-12T00:04:55.362Z,7.50
2019-03-12T00:07:30.243Z,8.53
2019-03-12T00:10:19.597Z,11.57
2019-03-12T00:12:44.193Z,9.03
2019-03-12T00:15:17.893Z,8.10
2019-03-12T00:17:52.021Z,9.03
2019-03-12T00:20:24.338Z,9.30
2019-03-12T00:23:00.495Z,11.50
2019-03-12T00:25:34.362Z,7.67
2019-03-12T00:28:09.019Z,8.80
2019-03-12T00:30:42.556Z,8.87
2019-03-12T00:33:16.521Z,9.83
2019-03-12T00:35:51.266Z,7.30
2019-03-12T00:38:25.267Z,8.47
2019-03-12T00:40:58.836Z,4.57
2019-03-12T00:43:32.789Z,10.20
2019-03-12T00:46:06.507Z,12.30
2019-03-12T00:48:42.034Z,8.80
2019-03-12T00:51:15.622Z,7.17
2019-03-12T00:53:49.574Z,7.73
2019-03-12T00:56:23.267Z,8.23
2019-03-12T00:58:59.860Z,10.77
2019-03-12T01:01:34.152Z,9.27
2019-03-12T01:04:08.189Z,9.10
2019-03-12T01:06:41.757Z,8.03
2019-03-12T01:09:16.118Z,13.50
2019-03-12T01:11:49.903Z,11.73
2019-03-12T01:14:23.856Z,8.87
2019-03-12T01:16:58.325Z,8.73
2019-03-12T01:19:32.780Z,15.87
2019-03-12T01:22:06.982Z,12.43
2019-03-12T01:24:40.929Z,12.37
2019-03-12T01:27:14.615Z,8.57
2019-03-12T01:29:49.918Z,12.13
2019-03-12T01:32:23.471Z,5.50
2019-03-12T01:34:57.496Z,11.07
2019-03-12T01:37:31.227Z,12.23
2019-03-12T01:40:05.533Z,36.20
2019-03-12T01:42:39.329Z,9.80
2019-03-12T01:45:15.497Z,20.63
2019-03-12T01:47:49.315Z,8.03
2019-03-12T01:50:23.370Z,7.90
2019-03-12T01:52:57.129Z,8.07
2019-03-12T01:55:31.733Z,10.07
2019-03-12T01:58:05.255Z,12.50
2019-03-12T02:00:42.544Z,10.73
2019-03-12T02:03:16.126Z,14.80
2019-03-12T02:05:50.356Z,11.57
2019-03-12T02:08:24.047Z,10.97
2019-03-12T02:10:58.126Z,11.40
2019-03-12T02:13:31.893Z,9.83
2019-03-12T02:16:07.070Z,11.43
2019-03-12T02:18:41.057Z,10.00
2019-03-12T02:21:15.130Z,8.20
2019-03-12T02:23:49.022Z,9.30
2019-03-12T02:26:23.146Z,7.83
2019-03-12T02:28:57.096Z,9.90
2019-03-12T02:31:31.697Z,9.23
2019-03-12T02:34:05.768Z,15.17
2019-03-12T02:36:39.736Z,13.57
2019-03-12T02:39:14.562Z,8.27
2019-03-12T02:41:50.140Z,16.23
2019-03-12T02:44:24.334Z,9.80
2019-03-12T02:46:58.436Z,8.10
2019-03-12T02:49:32.301Z,8.93
2019-03-12T02:52:06.909Z,8.23
2019-03-12T02:54:40.562Z,11.90
2019-03-12T02:57:14.712Z,8.53
2019-03-12T02:59:48.632Z,13.10
2019-03-12T03:02:25.521Z,9.87
2019-03-12T03:04:59.100Z,11.07
2019-03-12T03:07:59.478Z,6.60
2019-03-12T03:10:33.107Z,5.13
2019-03-12T03:13:07.170Z,7.60
2019-03-12T03:15:43.047Z,6.27
2019-03-12T03:18:17.093Z,5.67
2019-03-12T03:20:51.068Z,4.87
2019-03-12T03:23:24.992Z,5.97
2019-03-12T03:25:58.992Z,6.83
2019-03-12T03:28:33.128Z,3.70
2019-03-12T03:31:07.040Z,2.90
2019-03-12T03:33:41.345Z,5.17
2019-03-12T03:36:15.035Z,2.87
2019-03-12T03:38:49.308Z,2.63
2019-03-12T03:41:23.364Z,6.87
2019-03-12T03:43:57.558Z,4.73
2019-03-12T03:46:31.217Z,3.87
2019-03-12T03:49:05.772Z,8.83
2019-03-12T03:51:39.475Z,3.93
2019-03-12T03:54:13.788Z,6.60
2019-03-12T03:56:47.446Z,2.37
2019-03-12T03:59:22.445Z,4.60
2019-03-12T04:01:56.070Z,5.90
2019-03-12T04:04:33.286Z,4.43
2019-03-12T04:07:07.045Z,2.87
2019-03-12T04:09:40.975Z,4.70
2019-03-12T04:12:14.730Z,3.60
2019-03-12T04:14:48.819Z,5.43
2019-03-12T04:17:22.863Z,6.87
2019-03-12T04:19:56.808Z,4.33
2019-03-12T04:22:30.689Z,6.63
2019-03-12T04:25:04.624Z,7.13
2019-03-12T04:27:38.333Z,4.67
2019-03-12T04:30:13.499Z,3.57
2019-03-12T04:32:47.385Z,6.00
2019-03-12T04:35:21.882Z,7.37
2019-03-12T04:37:56.149Z,7.50
2019-03-12T04:40:30.068Z,5.40
2019-03-12T04:43:03.754Z,8.13
2019-03-12T04:45:37.780Z,7.33
2019-03-12T04:48:11.470Z,6.30
2019-03-12T04:50:43.687Z,9.30
2019-03-12T04:53:17.517Z,6.37
2019-03-12T04:55:51.696Z,7.90
2019-03-12T04:58:25.426Z,9.40
2019-03-12T05:00:59.281Z,11.83
2019-03-12T05:03:32.808Z,7.83
2019-03-12T05:06:09.696Z,8.80
2019-03-12T05:08:44.237Z,5.53
2019-03-12T05:11:18.191Z,8.30
2019-03-12T05:14:40.259Z,6.50
2019-03-12T05:17:25.767Z,10.83
2019-03-12T05:19:59.400Z,12.97
2019-03-12T05:22:33.322Z,5.13
2019-03-12T05:25:07.728Z,6.87
2019-03-12T05:27:42.417Z,8.43
2019-03-12T05:30:26.081Z,11.37
2019-03-12T05:33:00.105Z,5.43
2019-03-12T05:35:33.856Z,7.03
2019-03-12T05:38:08.067Z,6.93
2019-03-12T05:40:42.077Z,4.63
2019-03-12T05:43:16.082Z,4.73
2019-03-12T05:45:50.126Z,5.80
2019-03-12T05:48:24.609Z,5.53
2019-03-12T05:50:58.238Z,4.67
2019-03-12T05:53:48.209Z,5.17
2019-03-12T05:56:23.301Z,2.93
2019-03-12T05:58:57.330Z,2.37
2019-03-12T06:01:31.396Z,10.87
2019-03-12T06:04:05.537Z,2.00
2019-03-12T06:06:42.544Z,7.77
2019-03-12T06:09:29.504Z,26.47
2019-03-12T06:11:52.270Z,11.17
2019-03-12T06:14:26.504Z,5.63
2019-03-12T06:17:00.494Z,15.23
2019-03-12T06:19:36.963Z,26.53
2019-03-12T06:22:11.903Z,35.20
2019-03-12T06:24:46.454Z,20.20
2019-03-12T06:27:20.508Z,24.63
2019-03-12T06:29:54.708Z,35.50
2019-03-12T06:32:40.812Z,40.80
2019-03-12T06:35:20.474Z,11.97
2019-03-12T06:38:07.364Z,14.27
2019-03-12T06:40:59.251Z,114.73
2019-03-12T06:43:59.744Z,18.30
2019-03-12T06:46:48.777Z,30.57
2019-03-12T06:49:39.183Z,19.23
2019-03-12T06:52:34.280Z,20.23
2019-03-12T06:55:34.258Z,16.80
2019-03-12T06:58:29.088Z,15.50
2019-03-12T07:01:15.201Z,40.80
2019-03-12T07:04:00.074Z,2.47
2019-03-12T07:06:56.946Z,77.00
2019-03-12T07:09:47.638Z,67.00
2019-03-12T07:12:57.565Z,52.90
2019-03-12T07:15:51.985Z,67.63
2019-03-12T07:19:04.911Z,51.83
2019-03-12T07:21:53.952Z,22.30
2019-03-12T07:24:50.240Z,24.27
2019-03-12T07:27:50.938Z,64.43
2019-03-12T07:30:58.892Z,36.73
2019-03-12T07:33:47.678Z,7.93
2019-03-12T07:36:39.253Z,5.17
2019-03-12T07:39:35.305Z,2.73
2019-03-12T07:42:48.327Z,14.93
2019-03-12T07:45:32.289Z,27.07
2019-03-12T07:48:16.406Z,33.13
2019-03-12T07:51:11.570Z,22.43
2019-03-12T07:53:59.409Z,27.10
2019-03-12T07:56:50.453Z,12.33
2019-03-12T07:59:44.762Z,31.53
2019-03-12T08:02:40.922Z,5.67
2019-03-12T08:05:28.152Z,32.73
2019-03-12T08:08:23.769Z,37.90
2019-03-12T08:11:17.865Z,21.97
2019-03-12T08:14:10.533Z,15.17
2019-03-12T08:17:15.885Z,26.10
2019-03-12T08:20:13.396Z,15.17
2019-03-12T08:23:14.384Z,2.30
2019-03-12T08:26:06.419Z,24.10
2019-03-12T08:28:50.168Z,22.60
2019-03-12T08:31:43.478Z,3.57
2019-03-12T08:34:38.364Z,1.93
2019-03-12T08:37:23.465Z,2.57
2019-03-12T08:40:12.240Z,1.57
2019-03-12T08:43:06.214Z,2.00
2019-03-12T08:46:00.192Z,1.90
2019-03-12T08:49:15.017Z,4.30
2019-03-12T08:52:12.782Z,1.43
2019-03-12T08:55:20.297Z,6.27
2019-03-12T08:58:27.437Z,6.47
2019-03-12T09:01:31.248Z,11.17
2019-03-12T09:04:25.333Z,7.97
2019-03-12T09:07:15.063Z,8.37
2019-03-12T09:10:15.363Z,3.80
2019-03-12T09:13:04.223Z,8.73
2019-03-12T09:16:02.635Z,5.57
2019-03-12T09:19:07.008Z,1.67
2019-03-12T09:21:54.731Z,1.43
2019-03-12T09:24:52.202Z,2.63
2019-03-12T09:27:49.157Z,2.97
2019-03-12T09:30:48.057Z,2.87
2019-03-12T09:33:59.953Z,1.33
2019-03-12T09:37:03.729Z,4.10
2019-03-12T09:39:57.682Z,2.53
2019-03-12T09:42:53.547Z,28.27
2019-03-12T09:45:46.502Z,4.27
2019-03-12T09:48:46.371Z,2.10
2019-03-12T09:51:25.190Z,2.13
2019-03-12T09:54:40.518Z,3.67
2019-03-12T09:57:46.391Z,2.57
2019-03-12T10:00:45.284Z,0.87
2019-03-12T10:03:47.858Z,3.40
2019-03-12T10:06:42.548Z,5.63
2019-03-12T10:09:36.254Z,1.33
2019-03-12T10:12:28.754Z,2.47
2019-03-12T10:15:21.210Z,1.20
2019-03-12T10:18:16.169Z,3.60
2019-03-12T10:21:04.958Z,2.37
2019-03-12T10:24:07.458Z,42.30
2019-03-12T10:27:03.147Z,32.33
2019-03-12T10:29:57.829Z,22.77
2019-03-12T10:32:59.482Z,17.03
2019-03-12T10:35:52.494Z,3.50
2019-03-12T10:39:10.965Z,23.30
2019-03-12T10:42:11.050Z,18.00
2019-03-12T10:44:58.211Z,77.13
2019-03-12T10:47:40.155Z,30.70
2019-03-12T10:50:14.249Z,7.17
2019-03-12T10:52:49.592Z,3.53
2019-03-12T10:55:25.391Z,2.30
2019-03-12T10:58:00.339Z,1.60
2019-03-12T11:00:37.208Z,1.37
2019-03-12T11:03:15.633Z,2.70
2019-03-12T11:05:51.538Z,2.23
2019-03-12T11:08:25.674Z,2.03
2019-03-12T11:11:02.480Z,2.07
2019-03-12T11:13:39.198Z,2.60
2019-03-12T11:16:14.033Z,3.83
2019-03-12T11:18:51.216Z,10.70
2019-03-12T11:21:25.082Z,11.07
2019-03-12T11:23:59.604Z,7.57
2019-03-12T11:26:35.784Z,32.00
2019-03-12T11:29:12.976Z,5.63
2019-03-12T11:31:49.969Z,11.00
2019-03-12T11:34:27.350Z,2.40
2019-03-12T11:37:14.610Z,5.20
2019-03-12T11:39:49.789Z,4.77
2019-03-12T11:42:24.449Z,24.67
2019-03-12T11:44:59.566Z,48.17
2019-03-12T11:47:34.569Z,4.13
2019-03-12T11:50:10.320Z,8.77
2019-03-12T11:52:54.698Z,5.80
2019-03-12T11:55:21.886Z,5.63
2019-03-12T11:58:00.724Z,2.50
2019-03-12T12:00:56.551Z,14.13
2019-03-12T12:03:34.342Z,5.50
2019-03-12T12:06:23.435Z,7.47
2019-03-12T12:08:59.676Z,51.80
2019-03-12T12:11:36.762Z,24.93
2019-03-12T12:14:10.601Z,19.93
2019-03-12T12:16:45.345Z,28.10
2019-03-12T12:19:20.699Z,20.90
2019-03-12T12:21:55.531Z,29.07
2019-03-12T12:24:30.845Z,16.47
2019-03-12T12:27:08.649Z,11.67
2019-03-12T12:29:44.089Z,39.07
2019-03-12T12:32:19.704Z,8.77
2019-03-12T12:34:55.496Z,10.73
2019-03-12T12:37:30.678Z,16.00
2019-03-12T12:40:06.812Z,4.17
2019-03-12T12:42:43.719Z,13.43
2019-03-12T12:45:19.401Z,43.10
2019-03-12T12:47:56.462Z,27.53
2019-03-12T12:51:02.343Z,28.40
2019-03-12T12:53:27.869Z,29.40
2019-03-12T12:56:09.702Z,2.67
2019-03-12T12:58:45.045Z,6.23
2019-03-12T13:01:22.409Z,15.77
2019-03-12T13:03:57.441Z,13.73
2019-03-12T13:06:31.079Z,4.20
2019-03-12T13:09:06.209Z,5.30
2019-03-12T13:11:45.325Z,2.90
2019-03-12T13:14:19.865Z,2.20
2019-03-12T13:16:56.596Z,2.57
2019-03-12T13:19:37.393Z,2.33
2019-03-12T13:22:13.566Z,2.47
2019-03-12T13:24:55.446Z,2.87
2019-03-12T13:27:41.284Z,2.37
2019-03-12T13:30:09.116Z,8.87
2019-03-12T13:32:43.276Z,4.17
2019-03-12T13:35:19.779Z,2.17
2019-03-12T13:37:54.611Z,2.63
2019-03-12T13:40:31.132Z,2.20
2019-03-12T13:43:06.653Z,2.00
2019-03-12T13:45:41.979Z,2.13
2019-03-12T13:48:29.705Z,1.80
2019-03-12T13:51:15.173Z,2.20
2019-03-12T13:53:49.660Z,2.23
2019-03-12T13:56:25.631Z,5.00
2019-03-12T13:59:01.248Z,5.47
2019-03-12T14:01:35.849Z,2.27
2019-03-12T14:04:11.082Z,5.27
2019-03-12T14:06:46.527Z,3.27
2019-03-12T14:09:20.422Z,1.47
2019-03-12T14:12:00.182Z,4.40
2019-03-12T14:14:37.354Z,2.43
2019-03-12T14:17:12.396Z,1.83
2019-03-12T14:19:48.273Z,8.03
2019-03-12T14:22:22.075Z,2.80
2019-03-12T14:24:57.248Z,3.50
2019-03-12T14:27:32.760Z,2.87
2019-03-12T14:30:06.216Z,2.70
2019-03-12T14:32:41.068Z,4.97
2019-03-12T14:35:18.257Z,6.40
2019-03-12T14:37:57.598Z,2.40
2019-03-12T14:40:31.703Z,2.77
2019-03-12T14:43:11.801Z,5.23
2019-03-12T14:45:53.528Z,2.43
2019-03-12T14:49:03.093Z,1.70
2019-03-12T14:52:08.579Z,2.07
2019-03-12T14:54:43.164Z,3.67
2019-03-12T14:57:17.525Z,5.33
2019-03-12T14:59:52.655Z,5.00
2019-03-12T15:02:32.030Z,4.10
2019-03-12T15:05:10.516Z,5.60
2019-03-12T15:07:45.107Z,2.33
2019-03-12T15:10:21.236Z,20.23
2019-03-12T15:12:58.061Z,40.83
2019-03-12T15:15:32.516Z,6.93
2019-03-12T15:18:06.780Z,7.30
2019-03-12T15:20:45.850Z,7.27
2019-03-12T15:23:24.631Z,27.13
2019-03-12T15:26:00.532Z,21.33
2019-03-12T15:28:36.255Z,67.07
2019-03-12T15:31:18.408Z,50.90
2019-03-12T15:33:52.869Z,34.00
2019-03-12T15:36:27.917Z,30.43
2019-03-12T15:39:01.950Z,42.50
2019-03-12T15:41:39.084Z,31.47
2019-03-12T15:44:14.002Z,30.23
2019-03-12T15:46:52.425Z,47.27
2019-03-12T15:49:26.887Z,7.97
2019-03-12T15:52:03.823Z,28.43
2019-03-12T15:54:41.031Z,57.53
2019-03-12T15:57:15.147Z,27.23
2019-03-12T15:59:49.848Z,12.13
2019-03-12T16:02:26.809Z,7.70
2019-03-12T16:05:01.057Z,22.27
2019-03-12T16:07:43.734Z,29.37
2019-03-12T16:10:19.686Z,49.57
2019-03-12T16:12:54.634Z,43.37
2019-03-12T16:15:29.426Z,25.63
2019-03-12T16:18:04.407Z,41.07
2019-03-12T16:20:39.183Z,19.50
2019-03-12T16:23:13.923Z,38.17
2019-03-12T16:25:50.416Z,22.70
2019-03-12T16:28:26.154Z,36.83
2019-03-12T16:31:01.555Z,43.47
2019-03-12T16:33:39.732Z,52.17
2019-03-12T16:36:13.785Z,18.63
2019-03-12T16:38:48.826Z,23.77
2019-03-12T16:41:22.794Z,21.50
2019-03-12T16:43:57.044Z,17.27
2019-03-12T16:46:31.517Z,49.60
2019-03-12T16:49:07.185Z,37.07
2019-03-12T16:51:41.148Z,17.10
2019-03-12T16:54:15.833Z,21.20
2019-03-12T16:56:50.195Z,32.00
2019-03-12T16:59:25.516Z,25.43
2019-03-12T17:02:05.727Z,17.63
2019-03-12T17:04:43.020Z,15.07
2019-03-12T17:07:25.962Z,19.10
2019-03-12T17:10:05.746Z,47.50
2019-03-12T17:12:41.142Z,33.40
2019-03-12T17:15:16.726Z,26.53
2019-03-12T17:17:59.300Z,33.03
2019-03-12T17:20:33.999Z,38.57
2019-03-12T17:23:25.731Z,24.57
2019-03-12T17:26:02.176Z,33.40
2019-03-12T17:28:36.521Z,35.47
2019-03-12T17:31:10.814Z,28.40
2019-03-12T17:33:45.459Z,25.07
2019-03-12T17:36:20.509Z,35.23
2019-03-12T17:38:55.412Z,48.10
2019-03-12T17:41:33.619Z,26.23
2019-03-12T17:44:08.775Z,38.57
2019-03-12T17:46:42.934Z,37.80
2019-03-12T17:49:16.563Z,47.80
2019-03-12T17:51:52.789Z,40.03
2019-03-12T17:54:32.239Z,31.03
2019-03-12T17:57:07.667Z,33.70
2019-03-12T17:59:43.994Z,41.53
2019-03-12T18:02:19.713Z,37.60
2019-03-12T18:04:54.895Z,37.20
2019-03-12T18:07:29.072Z,22.80
2019-03-12T18:10:05.407Z,33.73
2019-03-12T18:12:43.653Z,17.03
2019-03-12T18:15:19.832Z,33.80
2019-03-12T18:17:55.794Z,38.30
2019-03-12T18:20:29.870Z,34.53
2019-03-12T18:23:07.075Z,16.10
2019-03-12T18:25:42.440Z,22.90
2019-03-12T18:28:18.024Z,3.90
2019-03-12T18:30:52.911Z,9.57
2019-03-12T18:33:26.332Z,14.17
2019-03-12T18:36:00.708Z,39.33
2019-03-12T18:38:35.462Z,29.00
2019-03-12T18:41:12.727Z,27.47
2019-03-12T18:43:47.669Z,25.60
2019-03-12T18:46:22.571Z,23.77
2019-03-12T18:48:56.845Z,31.10
2019-03-12T18:51:53.252Z,27.93
2019-03-12T18:54:19.515Z,65.47
2019-03-12T18:56:55.951Z,38.03
2019-03-12T18:59:31.878Z,42.27
2019-03-12T19:02:05.786Z,24.30
2019-03-12T19:04:42.689Z,33.63
2019-03-12T19:07:18.374Z,24.80
2019-03-12T19:09:56.375Z,68.80
2019-03-12T19:12:30.278Z,48.97
2019-03-12T19:15:05.274Z,68.63
2019-03-12T19:17:39.710Z,58.23
2019-03-12T19:20:15.479Z,31.73
2019-03-12T19:22:49.076Z,35.33
2019-03-12T19:25:23.520Z,38.73
2019-03-12T19:28:01.100Z,35.40
2019-03-12T19:30:36.172Z,45.50
2019-03-12T19:33:20.439Z,31.10
2019-03-12T19:35:56.155Z,52.40
2019-03-12T19:38:30.279Z,47.57
2019-03-12T19:41:04.587Z,40.77
2019-03-12T19:43:38.432Z,42.97
2019-03-12T19:46:13.478Z,51.57
2019-03-12T19:48:47.111Z,32.63
2019-03-12T19:51:22.261Z,34.93
2019-03-12T19:53:56.146Z,40.27
2019-03-12T19:56:31.295Z,36.87
2019-03-12T19:59:05.898Z,48.70
2019-03-12T20:01:47.090Z,45.00
2019-03-12T20:04:21.632Z,55.03
2019-03-12T20:06:55.842Z,46.90
2019-03-12T20:09:45.627Z,40.20
2019-03-12T20:13:05.515Z,35.40
2019-03-12T20:16:14.078Z,39.43
2019-03-12T20:19:31.960Z,34.00
2019-03-12T20:22:49.511Z,71.00
2019-03-12T20:25:58.426Z,31.87
2019-03-12T20:29:33.703Z,37.30
2019-03-12T20:33:10.085Z,44.80
2019-03-12T20:36:18.336Z,27.10
2019-03-12T20:39:26.126Z,41.47
2019-03-12T20:42:34.134Z,23.07
2019-03-12T20:45:55.600Z,74.00
2019-03-12T20:49:32.016Z,38.97
2019-03-12T20:52:59.250Z,21.00
2019-03-12T20:56:41.955Z,26.27
2019-03-12T20:59:54.946Z,20.47
2019-03-12T21:03:07.818Z,49.23
2019-03-12T21:06:22.194Z,34.37
2019-03-12T21:09:35.174Z,40.97
2019-03-12T21:12:46.183Z,32.43
2019-03-12T21:15:59.042Z,47.03
2019-03-12T21:19:30.494Z,31.07
2019-03-12T21:22:45.221Z,36.97
2019-03-12T21:25:46.199Z,35.57
2019-03-12T21:29:06.295Z,18.80
2019-03-12T21:31:41.023Z,35.80
2019-03-12T21:34:15.014Z,25.93
2019-03-12T21:36:48.901Z,27.60
2019-03-12T21:39:24.299Z,32.43
2019-03-12T21:41:58.203Z,23.13
2019-03-12T21:44:31.993Z,34.60
2019-03-12T21:47:06.070Z,47.93
2019-03-12T21:49:39.929Z,37.50
2019-03-12T21:52:14.936Z,33.97
2019-03-12T21:54:49.335Z,46.03
2019-03-12T21:57:24.197Z,22.83
2019-03-12T21:59:59.155Z,21.13
2019-03-12T22:02:33.595Z,33.93
2019-03-12T22:05:07.854Z,20.30
2019-03-12T22:07:41.942Z,30.07
2019-03-12T22:10:15.520Z,28.07
2019-03-12T22:12:49.510Z,60.57
2019-03-12T22:15:23.544Z,75.77
2019-03-12T22:17:57.919Z,29.53
2019-03-12T22:20:32.171Z,22.00
2019-03-12T22:23:11.710Z,24.60
2019-03-12T22:25:45.316Z,24.17
2019-03-12T22:28:19.743Z,26.30
2019-03-12T22:30:56.191Z,25.67
2019-03-12T22:33:30.236Z,32.07
2019-03-12T22:36:03.698Z,21.07
2019-03-12T22:38:37.500Z,15.23
2019-03-12T22:41:11.012Z,22.37
2019-03-12T22:43:47.508Z,17.03
2019-03-12T22:46:21.422Z,29.70
2019-03-12T22:48:55.420Z,14.90
2019-03-12T22:51:28.988Z,16.47
2019-03-12T22:54:02.859Z,21.50
2019-03-12T22:56:37.063Z,33.23
2019-03-12T22:59:12.402Z,20.23
2019-03-12T23:02:04.244Z,21.53
2019-03-12T23:04:55.846Z,28.50
2019-03-12T23:07:46.875Z,18.67
2019-03-12T23:10:22.811Z,20.03
2019-03-12T23:12:59.199Z,19.40
2019-03-12T23:15:34.710Z,20.03
2019-03-12T23:18:09.181Z,32.83
2019-03-12T23:20:43.292Z,25.93
2019-03-12T23:23:17.055Z,22.87
2019-03-12T23:25:51.067Z,19.83
2019-03-12T23:28:24.880Z,26.33
2019-03-12T23:30:59.884Z,18.53
2019-03-12T23:33:34.264Z,16.17
2019-03-12T23:36:08.139Z,25.47
2019-03-12T23:38:41.796Z,14.30
2019-03-12T23:41:16.385Z,22.33
2019-03-12T23:43:51.165Z,26.10
2019-03-12T23:46:25.330Z,19.43
2019-03-12T23:48:59.043Z,15.03
2019-03-12T23:51:33.148Z,12.87
2019-03-12T23:54:06.756Z,11.83
2019-03-12T23:56:40.723Z,13.00
2019-03-12T23:59:15.835Z,12.50
